createdAt,value
2023-04-17T00:03:17.120Z,4.00
2023-04-17T00:07:22.486Z,3.67
2023-04-17T00:11:27.119Z,3.58
2023-04-17T00:15:30.256Z,4.07
2023-04-17T00:19:33.334Z,3.67
2023-04-17T00:23:36.938Z,4.22
2023-04-17T00:27:42.240Z,4.07
2023-04-17T00:31:45.355Z,3.63
2023-04-17T00:35:48.411Z,3.05
2023-04-17T00:39:51.568Z,3.70
2023-04-17T00:43:56.644Z,3.78
2023-04-17T00:48:01.340Z,4.50
2023-04-17T00:52:05.168Z,4.95
2023-04-17T00:56:09.408Z,4.10
2023-04-17T01:00:15.406Z,3.60
2023-04-17T01:04:18.638Z,4.32
2023-04-17T01:08:21.792Z,5.05
2023-04-17T01:12:26.482Z,3.88
2023-04-17T01:16:31.145Z,3.95
2023-04-17T01:20:34.914Z,4.13
2023-04-17T01:24:39.822Z,6.82
2023-04-17T01:28:43.247Z,3.67
2023-04-17T01:32:46.464Z,4.22
2023-04-17T01:36:49.630Z,4.05
2023-04-17T01:40:54.145Z,4.78
2023-04-17T01:44:57.224Z,4.00
2023-04-17T01:49:00.312Z,4.75
2023-04-17T01:53:03.364Z,3.60
2023-04-17T01:57:07.964Z,4.78
2023-04-17T02:01:11.088Z,3.80
2023-04-17T02:05:14.249Z,4.65
2023-04-17T02:09:17.386Z,3.85
2023-04-17T02:13:21.911Z,4.70
2023-04-17T02:17:25.115Z,4.38
2023-04-17T02:21:28.393Z,4.30
2023-04-17T02:25:33.545Z,5.95
2023-04-17T02:29:38.012Z,3.90
2023-04-17T02:33:41.091Z,4.35
2023-04-17T02:37:46.099Z,4.10
2023-04-17T02:41:49.968Z,3.58
2023-04-17T02:45:54.428Z,4.55
2023-04-17T02:50:00.146Z,3.80
2023-04-17T02:54:03.323Z,3.55
2023-04-17T02:58:06.592Z,3.72
2023-04-17T03:02:11.781Z,4.30
2023-04-17T03:06:15.138Z,4.18
2023-04-17T03:10:18.341Z,4.53
2023-04-17T03:14:21.801Z,4.20
2023-04-17T03:18:26.230Z,3.60
2023-04-17T03:22:29.629Z,3.97
2023-04-17T03:26:32.873Z,5.18
2023-04-17T03:30:41.345Z,4.20
2023-04-17T03:34:47.244Z,5.13
2023-04-17T03:38:50.267Z,4.45
2023-04-17T03:42:53.346Z,5.05
2023-04-17T03:46:56.435Z,6.35
2023-04-17T03:51:00.975Z,5.65
2023-04-17T03:55:06.578Z,4.65
2023-04-17T03:59:10.079Z,5.85
2023-04-17T04:03:17.955Z,5.10
2023-04-17T04:07:22.820Z,5.03
2023-04-17T04:11:27.248Z,6.15
2023-04-17T04:15:31.078Z,4.72
2023-04-17T04:19:38.010Z,5.38
2023-04-17T04:23:42.963Z,4.65
2023-04-17T04:27:50.600Z,5.18
2023-04-17T04:31:59.364Z,6.20
2023-04-17T04:36:08.758Z,5.53
2023-04-17T04:40:14.985Z,4.70
2023-04-17T04:44:18.909Z,5.18
2023-04-17T04:48:23.064Z,6.50
2023-04-17T04:52:27.767Z,5.78
2023-04-17T04:56:36.251Z,5.35
2023-04-17T05:00:41.308Z,6.07
2023-04-17T05:04:49.315Z,6.32
2023-04-17T05:08:53.107Z,6.13
2023-04-17T05:12:57.735Z,7.35
2023-04-17T05:17:01.447Z,5.82
2023-04-17T05:21:05.679Z,5.85
2023-04-17T05:25:09.693Z,6.82
2023-04-17T05:29:14.541Z,6.43
2023-04-17T05:33:18.200Z,6.53
2023-04-17T05:37:24.444Z,6.53
2023-04-17T05:41:28.138Z,6.22
2023-04-17T05:45:32.741Z,6.03
2023-04-17T05:49:36.215Z,7.25
2023-04-17T05:53:39.342Z,7.13
2023-04-17T05:57:42.467Z,7.72
2023-04-17T06:01:47.152Z,6.38
2023-04-17T06:05:55.378Z,7.00
2023-04-17T06:09:58.539Z,8.43
2023-04-17T06:14:01.889Z,7.45
2023-04-17T06:18:06.630Z,6.95
2023-04-17T06:22:10.307Z,5.50
2023-04-17T06:26:13.397Z,7.63
2023-04-17T06:30:16.535Z,8.45
2023-04-17T06:34:30.610Z,6.20
2023-04-17T06:38:33.739Z,5.97
2023-04-17T06:42:37.686Z,6.28
2023-04-17T06:46:45.885Z,7.20
2023-04-17T06:50:50.432Z,6.88
2023-04-17T06:54:54.824Z,5.40
2023-04-17T06:58:57.977Z,7.45
2023-04-17T07:03:01.716Z,8.02
2023-04-17T07:07:06.194Z,6.07
2023-04-17T07:11:09.366Z,6.80
2023-04-17T07:15:12.739Z,6.70
2023-04-17T07:19:16.000Z,5.40
2023-04-17T07:23:20.631Z,6.18
2023-04-17T07:27:23.769Z,5.53
2023-04-17T07:31:28.382Z,6.10
2023-04-17T07:35:31.660Z,5.63
2023-04-17T07:39:36.161Z,6.65
2023-04-17T07:43:39.205Z,8.63
2023-04-17T07:47:42.305Z,6.88
2023-04-17T07:51:45.356Z,6.53
2023-04-17T07:55:49.829Z,7.03
2023-04-17T07:59:53.172Z,6.47
2023-04-17T08:03:56.777Z,5.93
2023-04-17T08:08:01.273Z,6.53
2023-04-17T08:12:06.972Z,5.78
2023-04-17T08:16:11.071Z,7.38
2023-04-17T08:20:14.394Z,7.13
2023-04-17T08:24:19.777Z,6.88
2023-04-17T08:28:24.578Z,6.50
2023-04-17T08:32:27.645Z,6.65
2023-04-17T08:36:31.237Z,7.45
2023-04-17T08:40:34.278Z,6.15
2023-04-17T08:44:38.815Z,6.05
2023-04-17T08:48:41.910Z,6.68
2023-04-17T08:52:46.774Z,7.53
2023-04-17T08:56:50.288Z,7.82
2023-04-17T09:00:54.698Z,7.70
2023-04-17T09:04:58.005Z,7.35
2023-04-17T09:09:04.150Z,7.13
2023-04-17T09:13:07.581Z,7.47
2023-04-17T09:17:12.007Z,7.07
2023-04-17T09:21:16.963Z,6.85
2023-04-17T09:25:23.238Z,6.88
2023-04-17T09:29:27.084Z,7.28
2023-04-17T09:33:31.509Z,6.82
2023-04-17T09:37:51.282Z,6.03
2023-04-17T09:42:03.986Z,6.28
2023-04-17T09:46:07.677Z,6.65
2023-04-17T09:50:12.789Z,6.03
2023-04-17T09:54:17.108Z,7.60
2023-04-17T09:58:21.309Z,8.07
2023-04-17T10:02:24.692Z,7.15
2023-04-17T10:06:31.235Z,6.90
2023-04-17T10:10:36.542Z,8.05
2023-04-17T10:14:40.518Z,8.40
2023-04-17T10:18:44.947Z,8.00
2023-04-17T10:22:54.381Z,9.82
2023-04-17T10:26:57.401Z,7.03
2023-04-17T10:31:02.380Z,7.43
2023-04-17T10:35:44.491Z,7.95
2023-04-17T10:39:54.295Z,10.90
2023-04-17T10:43:58.704Z,6.80
2023-04-17T10:48:01.925Z,8.40
2023-04-17T10:52:05.209Z,6.72
2023-04-17T10:56:10.648Z,7.72
2023-04-17T11:00:14.986Z,6.70
2023-04-17T11:04:22.280Z,5.97
2023-04-17T11:08:25.564Z,6.93
2023-04-17T11:12:32.623Z,7.40
2023-04-17T11:16:36.062Z,6.05
2023-04-17T11:20:39.104Z,6.82
2023-04-17T11:24:42.116Z,6.40
2023-04-17T11:28:46.679Z,6.53
2023-04-17T11:32:49.866Z,7.78
2023-04-17T11:36:54.721Z,6.30
2023-04-17T11:41:00.108Z,9.85
2023-04-17T11:45:09.147Z,4.85
2023-04-17T11:49:13.002Z,5.40
2023-04-17T11:53:17.973Z,5.40
2023-04-17T11:57:21.064Z,3.97
2023-04-17T12:01:27.479Z,4.13
2023-04-17T12:05:32.273Z,5.63
2023-04-17T12:09:36.857Z,5.28
2023-04-17T12:13:39.959Z,5.07
2023-04-17T12:17:44.485Z,4.65
2023-04-17T12:21:48.126Z,5.05
2023-04-17T12:25:51.152Z,5.47
2023-04-17T12:29:54.201Z,3.92
2023-04-17T12:33:58.654Z,4.43
2023-04-17T12:38:01.897Z,5.20
2023-04-17T12:42:05.236Z,6.13
2023-04-17T12:46:08.303Z,3.92
2023-04-17T12:50:13.652Z,3.65
2023-04-17T12:54:16.898Z,4.35
2023-04-17T12:58:19.925Z,4.57
2023-04-17T13:02:24.322Z,3.67
2023-04-17T13:06:29.250Z,5.75
2023-04-17T13:10:34.304Z,4.57
2023-04-17T13:14:38.406Z,3.50
2023-04-17T13:18:41.660Z,4.25
2023-04-17T13:22:46.106Z,4.47
2023-04-17T13:26:49.197Z,4.05
2023-04-17T13:30:53.107Z,4.43
2023-04-17T13:34:58.588Z,4.70
2023-04-17T13:39:04.517Z,3.72
2023-04-17T13:43:07.576Z,4.15
2023-04-17T13:47:10.655Z,4.47
2023-04-17T13:51:14.626Z,4.40
2023-04-17T13:55:19.305Z,3.97
2023-04-17T13:59:22.370Z,4.38
2023-04-17T14:03:25.613Z,4.00
2023-04-17T14:07:30.030Z,3.88
2023-04-17T14:11:34.702Z,4.60
2023-04-17T14:15:37.880Z,4.95
2023-04-17T14:19:41.435Z,4.07
2023-04-17T14:23:44.532Z,5.13
2023-04-17T14:27:49.068Z,4.70
2023-04-17T14:31:52.184Z,4.47
2023-04-17T14:35:56.799Z,5.82
2023-04-17T14:39:59.864Z,5.18
2023-04-17T14:44:04.321Z,4.38
2023-04-17T14:48:07.717Z,5.15
2023-04-17T14:52:10.907Z,5.22
2023-04-17T14:56:14.108Z,4.82
2023-04-17T15:00:20.915Z,5.40
2023-04-17T15:04:24.221Z,4.43
2023-04-17T15:08:28.457Z,5.32
2023-04-17T15:12:31.720Z,4.68
2023-04-17T15:16:36.240Z,5.03
2023-04-17T15:20:39.505Z,4.47
2023-04-17T15:24:42.526Z,6.05
2023-04-17T15:28:45.636Z,4.18
2023-04-17T15:32:50.056Z,6.43
2023-04-17T15:36:53.140Z,5.43
2023-04-17T15:40:56.149Z,4.65
2023-04-17T15:44:59.394Z,6.10
2023-04-17T15:49:08.328Z,6.95
2023-04-17T15:53:13.321Z,5.25
2023-04-17T15:57:16.532Z,9.73
2023-04-17T16:01:19.713Z,7.45
2023-04-17T16:05:24.242Z,8.18
2023-04-17T16:09:27.356Z,6.50
2023-04-17T16:13:30.494Z,6.95
2023-04-17T16:17:33.561Z,7.00
2023-04-17T16:21:39.011Z,6.93
2023-04-17T16:25:42.010Z,8.00
2023-04-17T16:29:45.829Z,8.00
2023-04-17T16:33:51.157Z,8.35
2023-04-17T16:37:55.589Z,8.65
2023-04-17T16:41:58.623Z,10.38
2023-04-17T16:46:10.908Z,9.13
2023-04-17T16:50:23.277Z,8.23
2023-04-17T16:54:29.455Z,9.48
2023-04-17T16:58:33.091Z,8.85
2023-04-17T17:02:36.226Z,9.13
2023-04-17T17:06:39.404Z,9.50
2023-04-17T17:10:43.781Z,12.65
2023-04-17T17:14:47.057Z,10.90
2023-04-17T17:18:50.465Z,7.95
2023-04-17T17:22:53.718Z,7.40
2023-04-17T17:26:58.250Z,9.10
2023-04-17T17:31:02.132Z,8.10
2023-04-17T17:35:05.515Z,11.02
2023-04-17T17:39:08.609Z,8.52
2023-04-17T17:43:13.220Z,6.32
2023-04-17T17:47:16.272Z,7.90
2023-04-17T17:51:20.036Z,4.97
2023-04-17T17:55:23.367Z,5.00
2023-04-17T17:59:27.849Z,5.50
2023-04-17T18:03:30.992Z,5.20
2023-04-17T18:07:34.237Z,5.75
2023-04-17T18:11:38.848Z,5.43
2023-04-17T18:15:43.428Z,6.30
2023-04-17T18:19:46.553Z,6.88
2023-04-17T18:23:49.771Z,7.50
2023-04-17T18:27:52.810Z,8.25
2023-04-17T18:31:57.362Z,6.93
2023-04-17T18:36:00.397Z,7.88
2023-04-17T18:40:03.493Z,6.28
2023-04-17T18:44:06.794Z,6.28
2023-04-17T18:48:11.200Z,8.43
2023-04-17T18:52:14.234Z,7.65
2023-04-17T18:56:17.557Z,5.35
2023-04-17T19:00:20.748Z,6.63
2023-04-17T19:04:25.167Z,7.40
2023-04-17T19:08:28.240Z,6.57
2023-04-17T19:12:31.322Z,7.28
2023-04-17T19:16:34.529Z,6.45
2023-04-17T19:20:39.981Z,7.00
2023-04-17T19:24:43.224Z,7.82
2023-04-17T19:28:46.403Z,8.23
2023-04-17T19:32:49.468Z,8.82
2023-04-17T19:36:53.977Z,8.70
2023-04-17T19:41:14.522Z,8.00
2023-04-17T19:45:17.833Z,8.75
2023-04-17T19:49:20.926Z,9.80
2023-04-17T19:53:25.359Z,9.50
2023-04-17T19:57:28.401Z,9.00
2023-04-17T20:01:32.214Z,8.27
2023-04-17T20:05:36.215Z,7.35
2023-04-17T20:09:40.662Z,7.97
2023-04-17T20:13:43.994Z,7.13
2023-04-17T20:17:47.208Z,8.75
2023-04-17T20:21:50.351Z,9.25
2023-04-17T20:25:54.961Z,8.57
2023-04-17T20:29:58.068Z,8.45
2023-04-17T20:34:01.127Z,8.70
2023-04-17T20:38:04.256Z,10.07
2023-04-17T20:42:08.663Z,7.30
2023-04-17T20:46:11.740Z,8.13
2023-04-17T20:50:15.330Z,8.57
2023-04-17T20:54:18.393Z,8.68
2023-04-17T20:58:22.785Z,9.48
2023-04-17T21:02:25.968Z,9.25
2023-04-17T21:06:29.159Z,8.82
2023-04-17T21:10:32.264Z,9.63
2023-04-17T21:14:37.279Z,9.93
2023-04-17T21:18:40.954Z,12.55
2023-04-17T21:22:44.028Z,12.02
2023-04-17T21:26:47.351Z,10.68
2023-04-17T21:30:51.761Z,10.93
2023-04-17T21:34:54.797Z,13.95
2023-04-17T21:38:57.842Z,10.85
2023-04-17T21:43:01.370Z,13.77
2023-04-17T21:47:05.809Z,12.27
2023-04-17T21:51:08.889Z,10.85
2023-04-17T21:55:11.966Z,11.48
2023-04-17T21:59:14.993Z,12.70
2023-04-17T22:03:19.714Z,9.48
2023-04-17T22:07:22.822Z,10.10
2023-04-17T22:11:25.917Z,10.05
2023-04-17T22:15:29.327Z,9.68
2023-04-17T22:19:33.964Z,10.73
2023-04-17T22:23:37.009Z,10.77
2023-04-17T22:27:40.343Z,10.00
2023-04-17T22:31:43.392Z,10.52
2023-04-17T22:35:47.853Z,9.77
2023-04-17T22:39:51.051Z,9.63
2023-04-17T22:43:54.088Z,8.80
2023-04-17T22:47:57.185Z,10.52
2023-04-17T22:52:01.905Z,10.45
2023-04-17T22:56:05.951Z,8.85
2023-04-17T23:00:10.449Z,7.95
2023-04-17T23:04:13.837Z,7.30
2023-04-17T23:08:18.428Z,8.10
2023-04-17T23:12:21.741Z,8.15
2023-04-17T23:16:24.808Z,8.30
2023-04-17T23:20:28.154Z,9.90
2023-04-17T23:24:34.222Z,8.57
2023-04-17T23:28:37.470Z,9.73
2023-04-17T23:32:41.809Z,9.35
2023-04-17T23:36:45.007Z,8.98
2023-04-17T23:40:49.592Z,8.40
2023-04-17T23:44:52.731Z,9.40
2023-04-17T23:48:55.762Z,8.50
2023-04-17T23:52:58.882Z,7.80
2023-04-17T23:57:03.697Z,7.07
